sensor_id;sensor_type;location;lat;lon;timestamp;temperature;humidity
30148;DHT22;16960;49.404;8.248;2023-09-12T00:02:01;26.20;51.50
30148;DHT22;16960;49.404;8.248;2023-09-12T00:04:28;26.10;51.60
30148;DHT22;16960;49.404;8.248;2023-09-12T00:06:55;26.20;51.60
30148;DHT22;16960;49.404;8.248;2023-09-12T00:09:22;26.10;51.60
30148;DHT22;16960;49.404;8.248;2023-09-12T00:11:50;26.10;51.60
30148;DHT22;16960;49.404;8.248;2023-09-12T00:14:18;26.10;51.70
30148;DHT22;16960;49.404;8.248;2023-09-12T00:16:44;26.10;51.70
30148;DHT22;16960;49.404;8.248;2023-09-12T00:19:12;26.10;51.60
30148;DHT22;16960;49.404;8.248;2023-09-12T00:21:39;26.10;51.70
30148;DHT22;16960;49.404;8.248;2023-09-12T00:24:07;26.10;51.70
30148;DHT22;16960;49.404;8.248;2023-09-12T00:26:34;26.10;51.80
30148;DHT22;16960;49.404;8.248;2023-09-12T00:29:02;26.10;51.80
30148;DHT22;16960;49.404;8.248;2023-09-12T00:31:29;26.10;51.80
30148;DHT22;16960;49.404;8.248;2023-09-12T00:33:56;26.00;51.80
30148;DHT22;16960;49.404;8.248;2023-09-12T00:36:23;26.00;51.80
30148;DHT22;16960;49.404;8.248;2023-09-12T00:38:49;26.00;51.80
30148;DHT22;16960;49.404;8.248;2023-09-12T00:41:16;26.00;51.90
30148;DHT22;16960;49.404;8.248;2023-09-12T00:43:43;26.00;51.80
30148;DHT22;16960;49.404;8.248;2023-09-12T00:46:13;26.00;51.80
30148;DHT22;16960;49.404;8.248;2023-09-12T00:48:41;26.10;51.80
30148;DHT22;16960;49.404;8.248;2023-09-12T00:51:08;26.00;51.90
30148;DHT22;16960;49.404;8.248;2023-09-12T00:53:36;26.00;51.90
30148;DHT22;16960;49.404;8.248;2023-09-12T00:56:03;26.00;51.90
30148;DHT22;16960;49.404;8.248;2023-09-12T00:58:30;26.00;51.90
30148;DHT22;16960;49.404;8.248;2023-09-12T01:00:57;26.00;51.90
30148;DHT22;16960;49.404;8.248;2023-09-12T01:03:26;25.90;51.50
30148;DHT22;16960;49.404;8.248;2023-09-12T01:05:54;25.90;51.50
30148;DHT22;16960;49.404;8.248;2023-09-12T01:08:21;25.90;51.50
30148;DHT22;16960;49.404;8.248;2023-09-12T01:10:50;25.90;51.50
30148;DHT22;16960;49.404;8.248;2023-09-12T01:13:20;26.00;51.90
30148;DHT22;16960;49.404;8.248;2023-09-12T01:15:47;26.00;52.00
30148;DHT22;16960;49.404;8.248;2023-09-12T01:18:13;25.90;51.40
30148;DHT22;16960;49.404;8.248;2023-09-12T01:20:52;26.00;51.90
30148;DHT22;16960;49.404;8.248;2023-09-12T01:23:35;26.00;51.80
30148;DHT22;16960;49.404;8.248;2023-09-12T01:26:17;26.00;51.80
30148;DHT22;16960;49.404;8.248;2023-09-12T01:28:51;26.00;51.80
30148;DHT22;16960;49.404;8.248;2023-09-12T01:31:19;25.90;51.30
30148;DHT22;16960;49.404;8.248;2023-09-12T01:33:46;25.90;51.30
30148;DHT22;16960;49.404;8.248;2023-09-12T01:36:12;26.00;51.80
30148;DHT22;16960;49.404;8.248;2023-09-12T01:38:39;25.90;51.30
30148;DHT22;16960;49.404;8.248;2023-09-12T01:41:07;25.90;52.00
30148;DHT22;16960;49.404;8.248;2023-09-12T01:43:34;25.90;51.30
30148;DHT22;16960;49.404;8.248;2023-09-12T01:46:07;25.90;51.30
30148;DHT22;16960;49.404;8.248;2023-09-12T01:48:35;25.90;51.20
30148;DHT22;16960;49.404;8.248;2023-09-12T01:51:04;25.90;51.30
30148;DHT22;16960;49.404;8.248;2023-09-12T01:53:33;25.90;51.20
30148;DHT22;16960;49.404;8.248;2023-09-12T01:56:00;25.90;51.30
30148;DHT22;16960;49.404;8.248;2023-09-12T01:58:27;25.90;51.30
30148;DHT22;16960;49.404;8.248;2023-09-12T02:00:55;25.90;51.20
30148;DHT22;16960;49.404;8.248;2023-09-12T02:03:24;25.90;51.20
30148;DHT22;16960;49.404;8.248;2023-09-12T02:05:51;25.90;51.20
30148;DHT22;16960;49.404;8.248;2023-09-12T02:08:17;25.90;51.20
30148;DHT22;16960;49.404;8.248;2023-09-12T02:10:44;25.90;51.20
30148;DHT22;16960;49.404;8.248;2023-09-12T02:13:11;25.90;51.20
30148;DHT22;16960;49.404;8.248;2023-09-12T02:15:38;25.90;51.20
30148;DHT22;16960;49.404;8.248;2023-09-12T02:18:05;25.90;51.20
30148;DHT22;16960;49.404;8.248;2023-09-12T02:20:38;25.90;51.20
30148;DHT22;16960;49.404;8.248;2023-09-12T02:23:05;25.90;51.20
30148;DHT22;16960;49.404;8.248;2023-09-12T02:25:32;25.90;51.20
30148;DHT22;16960;49.404;8.248;2023-09-12T02:27:59;25.90;51.20
30148;DHT22;16960;49.404;8.248;2023-09-12T02:30:26;25.80;51.20
30148;DHT22;16960;49.404;8.248;2023-09-12T02:32:53;25.80;51.20
30148;DHT22;16960;49.404;8.248;2023-09-12T02:35:20;25.80;51.20
30148;DHT22;16960;49.404;8.248;2023-09-12T02:37:48;25.80;51.20
30148;DHT22;16960;49.404;8.248;2023-09-12T02:40:15;25.80;51.20
30148;DHT22;16960;49.404;8.248;2023-09-12T02:42:43;25.80;51.20
30148;DHT22;16960;49.404;8.248;2023-09-12T02:45:10;25.80;51.20
30148;DHT22;16960;49.404;8.248;2023-09-12T02:47:37;25.80;51.30
30148;DHT22;16960;49.404;8.248;2023-09-12T02:50:04;25.80;51.20
30148;DHT22;16960;49.404;8.248;2023-09-12T02:52:31;25.80;51.20
30148;DHT22;16960;49.404;8.248;2023-09-12T02:55:00;25.80;51.20
30148;DHT22;16960;49.404;8.248;2023-09-12T02:57:27;25.80;51.20
30148;DHT22;16960;49.404;8.248;2023-09-12T02:59:54;25.80;51.20
30148;DHT22;16960;49.404;8.248;2023-09-12T03:02:20;25.80;51.20
30148;DHT22;16960;49.404;8.248;2023-09-12T03:04:47;25.80;51.20
30148;DHT22;16960;49.404;8.248;2023-09-12T03:07:14;25.80;51.20
30148;DHT22;16960;49.404;8.248;2023-09-12T03:09:41;25.80;51.20
30148;DHT22;16960;49.404;8.248;2023-09-12T03:12:09;25.80;51.20
30148;DHT22;16960;49.404;8.248;2023-09-12T03:14:36;25.80;51.20
30148;DHT22;16960;49.404;8.248;2023-09-12T03:17:03;25.80;51.20
30148;DHT22;16960;49.404;8.248;2023-09-12T03:19:30;25.80;51.20
30148;DHT22;16960;49.404;8.248;2023-09-12T03:21:57;25.80;51.20
30148;DHT22;16960;49.404;8.248;2023-09-12T03:24:24;25.80;51.20
30148;DHT22;16960;49.404;8.248;2023-09-12T03:26:51;25.80;51.20
30148;DHT22;16960;49.404;8.248;2023-09-12T03:29:19;25.80;51.20
30148;DHT22;16960;49.404;8.248;2023-09-12T03:31:46;25.80;51.20
30148;DHT22;16960;49.404;8.248;2023-09-12T03:34:13;25.70;51.20
30148;DHT22;16960;49.404;8.248;2023-09-12T03:36:40;25.80;51.20
30148;DHT22;16960;49.404;8.248;2023-09-12T03:39:07;25.80;51.20
30148;DHT22;16960;49.404;8.248;2023-09-12T03:41:34;25.80;51.30
30148;DHT22;16960;49.404;8.248;2023-09-12T03:44:01;25.70;51.20
30148;DHT22;16960;49.404;8.248;2023-09-12T03:46:30;25.70;51.30
30148;DHT22;16960;49.404;8.248;2023-09-12T03:48:57;25.80;51.30
30148;DHT22;16960;49.404;8.248;2023-09-12T03:51:24;25.70;51.30
30148;DHT22;16960;49.404;8.248;2023-09-12T03:53:51;25.70;51.40
30148;DHT22;16960;49.404;8.248;2023-09-12T03:56:18;25.70;51.40
30148;DHT22;16960;49.404;8.248;2023-09-12T03:58:45;25.70;51.40
30148;DHT22;16960;49.404;8.248;2023-09-12T04:01:12;25.70;51.50
30148;DHT22;16960;49.404;8.248;2023-09-12T04:03:40;25.70;51.50
30148;DHT22;16960;49.404;8.248;2023-09-12T04:06:07;25.70;51.50
30148;DHT22;16960;49.404;8.248;2023-09-12T04:08:35;25.70;51.50
30148;DHT22;16960;49.404;8.248;2023-09-12T04:11:01;25.70;51.50
30148;DHT22;16960;49.404;8.248;2023-09-12T04:13:28;25.70;51.50
30148;DHT22;16960;49.404;8.248;2023-09-12T04:15:56;25.70;51.50
30148;DHT22;16960;49.404;8.248;2023-09-12T04:18:23;25.70;51.60
30148;DHT22;16960;49.404;8.248;2023-09-12T04:20:51;25.70;51.50
30148;DHT22;16960;49.404;8.248;2023-09-12T04:23:19;25.70;51.50
30148;DHT22;16960;49.404;8.248;2023-09-12T04:25:46;25.70;51.50
30148;DHT22;16960;49.404;8.248;2023-09-12T04:28:13;25.70;51.50
30148;DHT22;16960;49.404;8.248;2023-09-12T04:30:40;25.70;51.50
30148;DHT22;16960;49.404;8.248;2023-09-12T04:33:07;25.70;51.50
30148;DHT22;16960;49.404;8.248;2023-09-12T04:35:34;25.70;51.50
30148;DHT22;16960;49.404;8.248;2023-09-12T04:38:03;25.70;51.50
30148;DHT22;16960;49.404;8.248;2023-09-12T04:40:30;25.70;51.50
30148;DHT22;16960;49.404;8.248;2023-09-12T04:42:57;25.70;51.50
30148;DHT22;16960;49.404;8.248;2023-09-12T04:45:23;25.70;51.50
30148;DHT22;16960;49.404;8.248;2023-09-12T04:47:50;25.70;51.50
30148;DHT22;16960;49.404;8.248;2023-09-12T04:50:17;25.70;51.50
30148;DHT22;16960;49.404;8.248;2023-09-12T04:52:44;25.70;51.50
30148;DHT22;16960;49.404;8.248;2023-09-12T04:55:12;25.70;51.40
30148;DHT22;16960;49.404;8.248;2023-09-12T04:57:39;25.70;51.50
30148;DHT22;16960;49.404;8.248;2023-09-12T05:00:07;25.70;51.40
30148;DHT22;16960;49.404;8.248;2023-09-12T05:02:36;25.70;51.40
30148;DHT22;16960;49.404;8.248;2023-09-12T05:05:03;25.70;51.50
30148;DHT22;16960;49.404;8.248;2023-09-12T05:07:30;25.70;51.50
30148;DHT22;16960;49.404;8.248;2023-09-12T05:09:57;25.60;51.50
30148;DHT22;16960;49.404;8.248;2023-09-12T05:12:26;25.60;51.50
30148;DHT22;16960;49.404;8.248;2023-09-12T05:14:52;25.70;51.50
30148;DHT22;16960;49.404;8.248;2023-09-12T05:17:19;25.60;51.50
30148;DHT22;16960;49.404;8.248;2023-09-12T05:19:46;25.60;51.50
30148;DHT22;16960;49.404;8.248;2023-09-12T05:22:13;25.60;51.50
30148;DHT22;16960;49.404;8.248;2023-09-12T05:24:40;25.60;51.50
30148;DHT22;16960;49.404;8.248;2023-09-12T05:27:07;25.60;51.50
30148;DHT22;16960;49.404;8.248;2023-09-12T05:29:35;25.60;51.50
30148;DHT22;16960;49.404;8.248;2023-09-12T05:32:02;25.60;51.60
30148;DHT22;16960;49.404;8.248;2023-09-12T05:34:29;25.60;51.70
30148;DHT22;16960;49.404;8.248;2023-09-12T05:36:56;25.60;51.70
30148;DHT22;16960;49.404;8.248;2023-09-12T05:39:23;25.60;51.70
30148;DHT22;16960;49.404;8.248;2023-09-12T05:41:50;25.60;51.70
30148;DHT22;16960;49.404;8.248;2023-09-12T05:44:17;25.60;51.70
30148;DHT22;16960;49.404;8.248;2023-09-12T05:46:46;25.60;51.70
30148;DHT22;16960;49.404;8.248;2023-09-12T05:49:14;25.60;51.70
30148;DHT22;16960;49.404;8.248;2023-09-12T05:51:41;25.50;51.70
30148;DHT22;16960;49.404;8.248;2023-09-12T05:54:07;25.60;51.70
30148;DHT22;16960;49.404;8.248;2023-09-12T05:56:35;25.60;51.70
30148;DHT22;16960;49.404;8.248;2023-09-12T05:59:02;25.60;51.70
30148;DHT22;16960;49.404;8.248;2023-09-12T06:01:29;25.60;51.70
30148;DHT22;16960;49.404;8.248;2023-09-12T06:03:57;25.60;51.70
30148;DHT22;16960;49.404;8.248;2023-09-12T06:06:24;25.60;51.90
30148;DHT22;16960;49.404;8.248;2023-09-12T06:08:51;25.50;52.10
30148;DHT22;16960;49.404;8.248;2023-09-12T06:11:19;25.50;52.30
30148;DHT22;16960;49.404;8.248;2023-09-12T06:13:46;25.50;52.30
30148;DHT22;16960;49.404;8.248;2023-09-12T06:16:13;25.50;52.30
30148;DHT22;16960;49.404;8.248;2023-09-12T06:18:40;25.50;52.20
30148;DHT22;16960;49.404;8.248;2023-09-12T06:21:08;25.50;52.20
30148;DHT22;16960;49.404;8.248;2023-09-12T06:23:35;25.50;52.30
30148;DHT22;16960;49.404;8.248;2023-09-12T06:26:02;25.50;52.40
30148;DHT22;16960;49.404;8.248;2023-09-12T06:28:30;25.50;52.40
30148;DHT22;16960;49.404;8.248;2023-09-12T06:30:57;25.50;52.60
30148;DHT22;16960;49.404;8.248;2023-09-12T06:33:25;25.40;52.80
30148;DHT22;16960;49.404;8.248;2023-09-12T06:35:52;25.30;53.10
30148;DHT22;16960;49.404;8.248;2023-09-12T06:38:22;25.30;53.20
30148;DHT22;16960;49.404;8.248;2023-09-12T06:40:49;25.30;53.30
30148;DHT22;16960;49.404;8.248;2023-09-12T06:43:17;25.20;53.50
30148;DHT22;16960;49.404;8.248;2023-09-12T06:45:45;25.10;54.00
30148;DHT22;16960;49.404;8.248;2023-09-12T06:48:12;25.10;54.20
30148;DHT22;16960;49.404;8.248;2023-09-12T06:50:39;25.00;54.60
30148;DHT22;16960;49.404;8.248;2023-09-12T06:53:06;25.00;54.60
30148;DHT22;16960;49.404;8.248;2023-09-12T06:55:35;25.10;54.40
30148;DHT22;16960;49.404;8.248;2023-09-12T06:58:02;25.10;54.10
30148;DHT22;16960;49.404;8.248;2023-09-12T07:00:29;25.10;54.00
30148;DHT22;16960;49.404;8.248;2023-09-12T07:02:56;25.10;53.80
30148;DHT22;16960;49.404;8.248;2023-09-12T07:05:23;25.10;53.90
30148;DHT22;16960;49.404;8.248;2023-09-12T07:07:51;25.20;53.70
30148;DHT22;16960;49.404;8.248;2023-09-12T07:10:18;25.20;53.70
30148;DHT22;16960;49.404;8.248;2023-09-12T07:12:46;25.20;53.70
30148;DHT22;16960;49.404;8.248;2023-09-12T07:15:13;25.20;53.50
30148;DHT22;16960;49.404;8.248;2023-09-12T07:17:40;25.20;53.60
30148;DHT22;16960;49.404;8.248;2023-09-12T07:20:08;25.20;53.50
30148;DHT22;16960;49.404;8.248;2023-09-12T07:22:37;25.30;53.70
30148;DHT22;16960;49.404;8.248;2023-09-12T07:25:05;25.30;53.60
30148;DHT22;16960;49.404;8.248;2023-09-12T07:27:33;25.40;53.90
30148;DHT22;16960;49.404;8.248;2023-09-12T07:30:01;25.40;53.50
30148;DHT22;16960;49.404;8.248;2023-09-12T07:32:28;25.40;53.30
30148;DHT22;16960;49.404;8.248;2023-09-12T07:34:55;25.40;53.30
30148;DHT22;16960;49.404;8.248;2023-09-12T07:37:22;25.40;53.30
30148;DHT22;16960;49.404;8.248;2023-09-12T07:39:48;25.50;53.50
30148;DHT22;16960;49.404;8.248;2023-09-12T07:42:15;25.50;53.20
30148;DHT22;16960;49.404;8.248;2023-09-12T07:44:42;25.50;53.20
30148;DHT22;16960;49.404;8.248;2023-09-12T07:47:11;25.50;53.30
30148;DHT22;16960;49.404;8.248;2023-09-12T07:49:38;25.60;53.20
30148;DHT22;16960;49.404;8.248;2023-09-12T07:52:06;25.60;53.30
30148;DHT22;16960;49.404;8.248;2023-09-12T07:54:33;25.60;53.30
30148;DHT22;16960;49.404;8.248;2023-09-12T07:57:00;25.60;53.30
30148;DHT22;16960;49.404;8.248;2023-09-12T07:59:26;25.70;53.40
30148;DHT22;16960;49.404;8.248;2023-09-12T08:01:53;25.70;53.40
30148;DHT22;16960;49.404;8.248;2023-09-12T08:04:22;25.70;53.50
30148;DHT22;16960;49.404;8.248;2023-09-12T08:06:48;25.70;53.50
30148;DHT22;16960;49.404;8.248;2023-09-12T08:09:16;25.70;53.50
30148;DHT22;16960;49.404;8.248;2023-09-12T08:11:43;25.70;53.40
30148;DHT22;16960;49.404;8.248;2023-09-12T08:14:09;25.70;53.40
30148;DHT22;16960;49.404;8.248;2023-09-12T08:16:36;25.80;53.50
30148;DHT22;16960;49.404;8.248;2023-09-12T08:19:04;25.80;53.30
30148;DHT22;16960;49.404;8.248;2023-09-12T08:21:32;25.80;53.30
30148;DHT22;16960;49.404;8.248;2023-09-12T08:23:59;25.90;53.20
30148;DHT22;16960;49.404;8.248;2023-09-12T08:26:26;25.90;53.10
30148;DHT22;16960;49.404;8.248;2023-09-12T08:28:54;25.90;53.30
30148;DHT22;16960;49.404;8.248;2023-09-12T08:31:20;25.90;53.10
30148;DHT22;16960;49.404;8.248;2023-09-12T08:33:47;25.90;53.20
30148;DHT22;16960;49.404;8.248;2023-09-12T08:36:14;26.00;53.80
30148;DHT22;16960;49.404;8.248;2023-09-12T08:38:43;26.00;54.00
30148;DHT22;16960;49.404;8.248;2023-09-12T08:41:09;25.90;53.30
30148;DHT22;16960;49.404;8.248;2023-09-12T08:43:37;25.90;53.60
30148;DHT22;16960;49.404;8.248;2023-09-12T08:46:04;25.90;53.80
30148;DHT22;16960;49.404;8.248;2023-09-12T08:48:32;25.90;53.60
30148;DHT22;16960;49.404;8.248;2023-09-12T08:51:00;25.90;54.10
30148;DHT22;16960;49.404;8.248;2023-09-12T08:53:29;26.00;54.00
30148;DHT22;16960;49.404;8.248;2023-09-12T08:55:57;26.00;54.00
30148;DHT22;16960;49.404;8.248;2023-09-12T08:58:25;26.00;53.80
30148;DHT22;16960;49.404;8.248;2023-09-12T09:00:52;26.00;53.50
30148;DHT22;16960;49.404;8.248;2023-09-12T09:03:20;26.10;53.30
30148;DHT22;16960;49.404;8.248;2023-09-12T09:05:48;26.10;53.30
30148;DHT22;16960;49.404;8.248;2023-09-12T09:08:16;26.10;53.10
30148;DHT22;16960;49.404;8.248;2023-09-12T09:10:55;26.20;52.90
30148;DHT22;16960;49.404;8.248;2023-09-12T09:13:24;26.20;52.80
30148;DHT22;16960;49.404;8.248;2023-09-12T09:16:09;26.20;52.80
30148;DHT22;16960;49.404;8.248;2023-09-12T09:18:50;26.30;52.70
30148;DHT22;16960;49.404;8.248;2023-09-12T09:21:17;26.30;52.60
30148;DHT22;16960;49.404;8.248;2023-09-12T09:23:46;26.30;52.60
30148;DHT22;16960;49.404;8.248;2023-09-12T09:26:13;26.30;52.60
30148;DHT22;16960;49.404;8.248;2023-09-12T09:28:41;26.40;52.50
30148;DHT22;16960;49.404;8.248;2023-09-12T09:31:11;26.40;52.30
30148;DHT22;16960;49.404;8.248;2023-09-12T09:33:39;26.40;52.30
30148;DHT22;16960;49.404;8.248;2023-09-12T09:36:07;26.40;52.20
30148;DHT22;16960;49.404;8.248;2023-09-12T09:38:35;26.50;52.10
30148;DHT22;16960;49.404;8.248;2023-09-12T09:41:04;26.50;52.20
30148;DHT22;16960;49.404;8.248;2023-09-12T09:43:32;26.50;52.10
30148;DHT22;16960;49.404;8.248;2023-09-12T09:46:01;26.60;51.90
30148;DHT22;16960;49.404;8.248;2023-09-12T09:48:28;26.60;51.80
30148;DHT22;16960;49.404;8.248;2023-09-12T09:51:00;26.60;51.80
30148;DHT22;16960;49.404;8.248;2023-09-12T09:53:28;26.60;51.70
30148;DHT22;16960;49.404;8.248;2023-09-12T09:56:08;26.70;51.70
30148;DHT22;16960;49.404;8.248;2023-09-12T09:58:35;26.60;51.60
30148;DHT22;16960;49.404;8.248;2023-09-12T10:01:05;26.60;51.60
30148;DHT22;16960;49.404;8.248;2023-09-12T10:03:36;26.70;51.60
30148;DHT22;16960;49.404;8.248;2023-09-12T10:06:04;26.70;51.60
30148;DHT22;16960;49.404;8.248;2023-09-12T10:08:32;26.70;51.60
30148;DHT22;16960;49.404;8.248;2023-09-12T10:11:02;26.80;51.50
30148;DHT22;16960;49.404;8.248;2023-09-12T10:13:32;26.80;51.50
30148;DHT22;16960;49.404;8.248;2023-09-12T10:16:01;26.80;51.40
30148;DHT22;16960;49.404;8.248;2023-09-12T10:18:37;26.80;51.30
30148;DHT22;16960;49.404;8.248;2023-09-12T10:21:10;26.90;51.30
30148;DHT22;16960;49.404;8.248;2023-09-12T10:23:39;26.90;51.20
30148;DHT22;16960;49.404;8.248;2023-09-12T10:26:11;26.90;51.20
30148;DHT22;16960;49.404;8.248;2023-09-12T10:28:40;26.90;51.10
30148;DHT22;16960;49.404;8.248;2023-09-12T10:31:08;26.90;51.10
30148;DHT22;16960;49.404;8.248;2023-09-12T10:33:37;26.90;51.00
30148;DHT22;16960;49.404;8.248;2023-09-12T10:36:05;27.00;51.60
30148;DHT22;16960;49.404;8.248;2023-09-12T10:38:38;27.00;51.50
30148;DHT22;16960;49.404;8.248;2023-09-12T10:41:06;27.00;51.50
30148;DHT22;16960;49.404;8.248;2023-09-12T10:43:36;27.00;51.50
30148;DHT22;16960;49.404;8.248;2023-09-12T10:46:03;27.00;51.50
30148;DHT22;16960;49.404;8.248;2023-09-12T10:48:32;27.00;51.40
30148;DHT22;16960;49.404;8.248;2023-09-12T10:51:01;27.00;51.40
30148;DHT22;16960;49.404;8.248;2023-09-12T10:53:30;27.00;51.40
30148;DHT22;16960;49.404;8.248;2023-09-12T10:55:59;27.10;51.30
30148;DHT22;16960;49.404;8.248;2023-09-12T10:58:27;27.00;51.30
30148;DHT22;16960;49.404;8.248;2023-09-12T11:01:22;27.10;51.20
30148;DHT22;16960;49.404;8.248;2023-09-12T11:03:50;27.10;51.20
30148;DHT22;16960;49.404;8.248;2023-09-12T11:06:22;27.10;51.20
30148;DHT22;16960;49.404;8.248;2023-09-12T11:09:17;27.10;51.20
30148;DHT22;16960;49.404;8.248;2023-09-12T11:11:46;27.10;51.10
30148;DHT22;16960;49.404;8.248;2023-09-12T11:14:13;27.10;51.10
30148;DHT22;16960;49.404;8.248;2023-09-12T11:16:41;27.10;51.10
30148;DHT22;16960;49.404;8.248;2023-09-12T11:19:18;27.20;51.30
30148;DHT22;16960;49.404;8.248;2023-09-12T11:21:49;27.20;51.20
30148;DHT22;16960;49.404;8.248;2023-09-12T11:24:17;27.20;51.10
30148;DHT22;16960;49.404;8.248;2023-09-12T11:26:55;27.20;51.10
30148;DHT22;16960;49.404;8.248;2023-09-12T11:29:26;27.20;51.10
30148;DHT22;16960;49.404;8.248;2023-09-12T11:31:57;27.20;51.00
30148;DHT22;16960;49.404;8.248;2023-09-12T11:34:27;27.30;51.80
30148;DHT22;16960;49.404;8.248;2023-09-12T11:36:58;27.30;51.10
30148;DHT22;16960;49.404;8.248;2023-09-12T11:39:29;27.30;51.10
30148;DHT22;16960;49.404;8.248;2023-09-12T11:41:57;27.40;51.20
30148;DHT22;16960;49.404;8.248;2023-09-12T11:44:24;27.40;51.10
30148;DHT22;16960;49.404;8.248;2023-09-12T11:46:53;27.40;51.10
30148;DHT22;16960;49.404;8.248;2023-09-12T11:49:20;27.40;51.00
30148;DHT22;16960;49.404;8.248;2023-09-12T11:51:48;27.50;51.00
30148;DHT22;16960;49.404;8.248;2023-09-12T11:54:18;27.50;51.10
30148;DHT22;16960;49.404;8.248;2023-09-12T11:56:47;27.50;51.00
30148;DHT22;16960;49.404;8.248;2023-09-12T11:59:14;27.50;50.90
30148;DHT22;16960;49.404;8.248;2023-09-12T12:01:45;27.60;50.80
30148;DHT22;16960;49.404;8.248;2023-09-12T12:04:12;27.60;50.80
30148;DHT22;16960;49.404;8.248;2023-09-12T12:06:40;27.60;50.80
30148;DHT22;16960;49.404;8.248;2023-09-12T12:09:08;27.60;50.80
30148;DHT22;16960;49.404;8.248;2023-09-12T12:11:37;27.70;50.70
30148;DHT22;16960;49.404;8.248;2023-09-12T12:14:12;27.70;50.80
30148;DHT22;16960;49.404;8.248;2023-09-12T12:16:40;27.70;50.80
30148;DHT22;16960;49.404;8.248;2023-09-12T12:19:07;27.70;50.80
30148;DHT22;16960;49.404;8.248;2023-09-12T12:21:34;27.70;50.60
30148;DHT22;16960;49.404;8.248;2023-09-12T12:24:02;27.80;50.60
30148;DHT22;16960;49.404;8.248;2023-09-12T12:26:30;27.80;50.60
30148;DHT22;16960;49.404;8.248;2023-09-12T12:28:59;27.80;50.50
30148;DHT22;16960;49.404;8.248;2023-09-12T12:31:26;27.80;50.50
30148;DHT22;16960;49.404;8.248;2023-09-12T12:33:53;27.80;50.50
30148;DHT22;16960;49.404;8.248;2023-09-12T12:36:20;27.90;50.40
30148;DHT22;16960;49.404;8.248;2023-09-12T12:38:49;27.90;50.40
30148;DHT22;16960;49.404;8.248;2023-09-12T12:41:21;27.90;50.30
30148;DHT22;16960;49.404;8.248;2023-09-12T12:43:49;27.90;50.40
30148;DHT22;16960;49.404;8.248;2023-09-12T12:46:18;27.90;50.50
30148;DHT22;16960;49.404;8.248;2023-09-12T12:48:47;28.00;50.80
30148;DHT22;16960;49.404;8.248;2023-09-12T12:51:15;28.00;50.70
30148;DHT22;16960;49.404;8.248;2023-09-12T12:53:44;28.00;50.70
30148;DHT22;16960;49.404;8.248;2023-09-12T12:56:13;28.00;50.70
30148;DHT22;16960;49.404;8.248;2023-09-12T12:58:46;28.00;50.70
30148;DHT22;16960;49.404;8.248;2023-09-12T13:01:14;28.00;50.70
30148;DHT22;16960;49.404;8.248;2023-09-12T13:03:42;28.10;50.70
30148;DHT22;16960;49.404;8.248;2023-09-12T13:06:10;28.10;50.70
30148;DHT22;16960;49.404;8.248;2023-09-12T13:08:40;28.10;50.70
30148;DHT22;16960;49.404;8.248;2023-09-12T13:11:08;28.10;50.60
30148;DHT22;16960;49.404;8.248;2023-09-12T13:13:35;28.10;50.60
30148;DHT22;16960;49.404;8.248;2023-09-12T13:16:03;28.10;50.50
30148;DHT22;16960;49.404;8.248;2023-09-12T13:18:31;28.20;50.40
30148;DHT22;16960;49.404;8.248;2023-09-12T13:21:00;28.20;50.50
30148;DHT22;16960;49.404;8.248;2023-09-12T13:23:27;28.10;50.40
30148;DHT22;16960;49.404;8.248;2023-09-12T13:25:54;28.20;50.40
30148;DHT22;16960;49.404;8.248;2023-09-12T13:28:21;28.20;50.40
30148;DHT22;16960;49.404;8.248;2023-09-12T13:30:49;28.20;50.40
30148;DHT22;16960;49.404;8.248;2023-09-12T13:33:16;28.20;50.30
30148;DHT22;16960;49.404;8.248;2023-09-12T13:35:43;28.30;50.30
30148;DHT22;16960;49.404;8.248;2023-09-12T13:38:11;28.20;50.20
30148;DHT22;16960;49.404;8.248;2023-09-12T13:40:38;28.30;50.20
30148;DHT22;16960;49.404;8.248;2023-09-12T13:43:05;28.30;50.20
30148;DHT22;16960;49.404;8.248;2023-09-12T13:45:33;28.30;50.60
30148;DHT22;16960;49.404;8.248;2023-09-12T13:48:00;28.40;50.40
30148;DHT22;16960;49.404;8.248;2023-09-12T13:50:28;28.40;50.30
30148;DHT22;16960;49.404;8.248;2023-09-12T13:52:54;28.40;50.30
30148;DHT22;16960;49.404;8.248;2023-09-12T13:55:23;28.40;50.30
30148;DHT22;16960;49.404;8.248;2023-09-12T13:57:50;28.40;50.20
30148;DHT22;16960;49.404;8.248;2023-09-12T14:00:17;28.50;50.20
30148;DHT22;16960;49.404;8.248;2023-09-12T14:02:44;28.40;50.80
30148;DHT22;16960;49.404;8.248;2023-09-12T14:05:11;28.50;50.50
30148;DHT22;16960;49.404;8.248;2023-09-12T14:07:39;28.50;50.60
30148;DHT22;16960;49.404;8.248;2023-09-12T14:10:06;28.60;50.70
30148;DHT22;16960;49.404;8.248;2023-09-12T14:12:35;28.60;50.70
30148;DHT22;16960;49.404;8.248;2023-09-12T14:15:02;28.60;50.60
30148;DHT22;16960;49.404;8.248;2023-09-12T14:17:29;28.60;50.60
30148;DHT22;16960;49.404;8.248;2023-09-12T14:19:56;28.60;50.50
30148;DHT22;16960;49.404;8.248;2023-09-12T14:22:23;28.60;50.40
30148;DHT22;16960;49.404;8.248;2023-09-12T14:24:50;28.60;50.30
30148;DHT22;16960;49.404;8.248;2023-09-12T14:27:18;28.70;50.30
30148;DHT22;16960;49.404;8.248;2023-09-12T14:29:46;28.70;50.20
30148;DHT22;16960;49.404;8.248;2023-09-12T14:32:15;28.70;50.50
30148;DHT22;16960;49.404;8.248;2023-09-12T14:34:41;28.80;50.50
30148;DHT22;16960;49.404;8.248;2023-09-12T14:37:10;28.70;50.40
30148;DHT22;16960;49.404;8.248;2023-09-12T14:39:37;28.80;50.40
30148;DHT22;16960;49.404;8.248;2023-09-12T14:42:05;28.80;50.60
30148;DHT22;16960;49.404;8.248;2023-09-12T14:44:34;28.80;50.60
30148;DHT22;16960;49.404;8.248;2023-09-12T14:47:02;28.70;50.60
30148;DHT22;16960;49.404;8.248;2023-09-12T14:49:29;28.70;50.50
30148;DHT22;16960;49.404;8.248;2023-09-12T14:51:56;28.70;50.50
30148;DHT22;16960;49.404;8.248;2023-09-12T14:54:23;28.70;50.60
30148;DHT22;16960;49.404;8.248;2023-09-12T14:56:50;28.70;50.60
30148;DHT22;16960;49.404;8.248;2023-09-12T14:59:17;28.70;50.60
30148;DHT22;16960;49.404;8.248;2023-09-12T15:01:45;28.70;50.60
30148;DHT22;16960;49.404;8.248;2023-09-12T15:04:13;28.70;50.70
30148;DHT22;16960;49.404;8.248;2023-09-12T15:06:40;28.60;50.60
30148;DHT22;16960;49.404;8.248;2023-09-12T15:09:07;28.60;50.70
30148;DHT22;16960;49.404;8.248;2023-09-12T15:11:34;28.60;50.60
30148;DHT22;16960;49.404;8.248;2023-09-12T15:14:01;28.60;50.70
30148;DHT22;16960;49.404;8.248;2023-09-12T15:16:28;28.60;50.60
30148;DHT22;16960;49.404;8.248;2023-09-12T15:19:00;28.60;50.70
30148;DHT22;16960;49.404;8.248;2023-09-12T15:21:28;28.60;50.70
30148;DHT22;16960;49.404;8.248;2023-09-12T15:23:55;28.60;50.70
30148;DHT22;16960;49.404;8.248;2023-09-12T15:26:22;28.60;50.70
30148;DHT22;16960;49.404;8.248;2023-09-12T15:28:49;28.50;50.80
30148;DHT22;16960;49.404;8.248;2023-09-12T15:31:16;28.50;50.80
30148;DHT22;16960;49.404;8.248;2023-09-12T15:33:43;28.60;50.80
30148;DHT22;16960;49.404;8.248;2023-09-12T15:36:10;28.60;50.80